Time;durP1;ratioP1;P1;durP2;ratioP2;P2;SDS_P1;SDS_P2;PMS_P1;PMS_P2;Temp;Humidity;BMP_temperature;BMP_pressure;BME280_temperature;BME280_humidity;BME280_pressure;Samples;Min_cycle;Max_cycle;Signal;HPM_P1;HPM_P2
2021/01/14 04:31:17;;;;;;;6.60;4.97;;;;;;;7.69;59.67;98668.53;7849666;23;20234;-86
2021/01/14 04:34:38;;;;;;;5.80;4.70;;;;;;;7.79;59.37;98696.72;6801312;29;20323;-87
2021/01/14 04:38:11;;;;;;;5.87;4.47;;;;;;;7.77;59.82;98692.59;6829217;29;20208;-86
2021/01/14 04:41:45;;;;;;;5.23;4.53;;;;;;;7.38;59.03;98641.97;6808476;29;20249;-87
2021/01/14 04:48:48;;;;;;;7.67;5.03;;;;;;;7.67;59.68;98690.19;6776510;29;20624;-85
2021/01/14 04:52:15;;;;;;;6.03;4.80;;;;;;;7.65;59.92;98702.97;6775289;29;20246;-87
2021/01/14 04:55:43;;;;;;;8.17;4.70;;;;;;;7.40;60.09;98669.47;6776775;29;20212;-87
2021/01/14 04:59:05;;;;;;;4.97;4.47;;;;;;;7.13;60.07;98647.88;6789338;29;20242;-86
2021/01/14 05:02:37;;;;;;;5.83;4.33;;;;;;;7.24;59.98;98648.22;6789811;29;20305;-87
2021/01/14 05:06:02;;;;;;;8.80;4.73;;;;;;;7.30;60.78;98698.41;6781609;29;20235;-87
2021/01/14 05:09:25;;;;;;;5.93;4.77;;;;;;;7.33;60.77;98683.78;6778520;29;20217;-88
2021/01/14 05:13:26;;;;;;;7.77;5.37;;;;;;;7.30;60.71;98670.78;6777008;29;20301;-85
2021/01/14 05:20:57;;;;;;;7.70;4.90;;;;;;;7.85;59.40;98704.00;6778402;29;20240;-86
2021/01/14 05:24:26;;;;;;;7.93;5.20;;;;;;;7.34;61.17;98710.44;6792345;29;20223;-87
2021/01/14 05:27:48;;;;;;;5.83;4.97;;;;;;;7.33;60.99;98716.81;6777072;29;20299;-88
2021/01/14 05:31:33;;;;;;;6.23;5.50;;;;;;;7.56;60.35;98739.00;6801650;29;20232;-88
2021/01/14 05:34:55;;;;;;;6.97;5.23;;;;;;;7.47;60.31;98737.41;6787517;29;20240;-86
2021/01/14 05:38:25;;;;;;;9.13;5.60;;;;;;;7.31;61.19;98769.78;6795246;29;20237;-86
2021/01/14 05:41:48;;;;;;;7.00;5.60;;;;;;;7.31;61.14;98736.78;6773887;29;20307;-86
2021/01/14 05:45:22;;;;;;;6.63;5.93;;;;;;;7.36;60.95;98762.03;6774500;29;20208;-86
2021/01/14 05:48:44;;;;;;;10.63;6.13;;;;;;;7.45;60.86;98750.19;6774520;29;20218;-87
2021/01/14 05:52:05;;;;;;;8.53;6.40;;;;;;;7.63;60.36;98752.47;6779917;29;20244;-86
2021/01/14 05:55:28;;;;;;;8.00;6.20;;;;;;;7.08;61.38;98731.50;6799026;29;20212;-86
2021/01/14 05:58:52;;;;;;;8.17;6.07;;;;;;;7.55;60.41;98741.84;6799657;29;20826;-85
2021/01/14 06:02:27;;;;;;;7.30;6.10;;;;;;;7.41;60.55;98715.88;6799607;29;20233;-86
2021/01/14 06:05:48;;;;;;;10.00;6.60;;;;;;;7.58;60.20;98734.25;6801671;29;20208;-85
2021/01/14 06:09:11;;;;;;;11.40;7.23;;;;;;;7.28;60.60;98708.50;6801715;29;20221;-87
2021/01/14 06:12:33;;;;;;;10.23;7.10;;;;;;;6.95;62.14;98741.25;6801054;29;20254;-85
2021/01/14 06:16:42;;;;;;;9.63;6.77;;;;;;;7.19;61.39;98762.41;6801353;29;20228;-90
2021/01/14 06:25:30;;;;;;;;;;;;;;;;;;;;;
2021/01/14 06:33:34;;;;;;;9.40;7.13;;;;;;;7.36;60.32;98770.06;6713227;29;20296;-93
2021/01/14 06:42:04;;;;;;;10.80;7.60;;;;;;;6.97;61.48;98792.78;6739603;29;20239;-93
2021/01/14 06:50:39;;;;;;;10.17;7.60;;;;;;;7.53;60.52;98810.94;6631819;29;20258;-94
2021/01/14 06:54:50;;;;;;;;;;;;;;;;;;;;;
2021/01/14 07:11:50;;;;;;;10.73;9.00;;;;;;;7.23;60.82;98818.16;6667189;29;20241;-89
2021/01/14 07:19:44;;;;;;;11.07;8.17;;;;;;;6.75;61.35;98774.91;6577839;30;20237;-88
2021/01/14 07:23:29;;;;;;;13.80;10.07;;;;;;;7.27;61.05;98814.09;6608080;29;20235;-88
2021/01/14 07:27:13;;;;;;;10.80;8.90;;;;;;;7.04;61.25;98825.88;6621715;30;20201;-90
2021/01/14 07:35:23;;;;;;;12.60;10.30;;;;;;;7.17;60.06;98788.56;6580154;30;20247;-91
2021/01/14 07:39:02;;;;;;;24.37;14.57;;;;;;;6.91;60.24;98759.53;6568034;30;20218;-91
2021/01/14 07:56:00;;;;;;;17.33;11.53;;;;;;;6.63;61.06;98797.78;6641735;29;20255;-88
2021/01/14 08:00:12;;;;;;;15.50;10.97;;;;;;;7.43;60.41;98853.31;6627061;30;20241;-92
2021/01/14 08:03:47;;;;;;;10.20;9.13;;;;;;;7.05;60.50;98808.78;6623877;29;20223;-91
2021/01/14 08:07:49;;;;;;;12.87;10.00;;;;;;;7.27;60.42;98865.06;6704715;29;20226;-92
2021/01/14 08:25:19;;;;;;;11.30;10.07;;;;;;;7.36;60.44;98885.38;6485432;30;20213;-90
2021/01/14 08:42:16;;;;;;;12.43;11.13;;;;;;;7.49;59.81;98904.38;6419157;30;20239;-87
2021/01/14 08:45:43;;;;;;;16.10;11.50;;;;;;;7.95;58.99;98897.00;6454163;30;20206;-86
2021/01/14 08:49:23;;;;;;;14.80;12.40;;;;;;;7.55;60.11;98921.59;6536577;30;20707;-88
2021/01/14 08:57:07;;;;;;;12.90;10.23;;;;;;;7.98;57.78;98869.75;7049738;27;20880;-66
2021/01/14 09:00:29;;;;;;;16.53;11.87;;;;;;;8.14;58.07;98897.22;7036916;28;20214;-66
2021/01/14 09:03:52;;;;;;;15.17;10.70;;;;;;;8.43;58.20;98916.00;7050447;28;20203;-67
2021/01/14 09:07:20;;;;;;;15.80;11.83;;;;;;;8.51;57.12;98909.69;7042169;28;20222;-65
2021/01/14 09:10:46;;;;;;;12.03;10.70;;;;;;;8.45;57.25;98923.88;7040774;28;20246;-67
2021/01/14 09:14:10;;;;;;;14.57;11.43;;;;;;;8.48;57.76;98904.72;7037101;28;20537;-65
2021/01/14 09:17:32;;;;;;;12.30;10.30;;;;;;;8.69;57.21;98926.22;7022216;28;20220;-65
2021/01/14 09:20:53;;;;;;;16.23;13.23;;;;;;;7.49;59.60;98909.72;7022421;28;20552;-66
2021/01/14 09:24:16;;;;;;;12.67;11.37;;;;;;;8.33;59.56;98945.03;7022150;28;20276;-66
2021/01/14 09:27:40;;;;;;;11.13;9.93;;;;;;;8.56;58.44;98935.00;7034707;28;20676;-66
2021/01/14 09:31:04;;;;;;;13.30;11.47;;;;;;;8.33;57.75;98931.63;7049340;28;20726;-66
2021/01/14 09:34:25;;;;;;;13.90;10.90;;;;;;;7.99;58.09;98950.13;7049018;28;20391;-66
2021/01/14 09:37:48;;;;;;;13.80;11.57;;;;;;;7.83;58.21;98930.69;7048890;28;20205;-66
2021/01/14 09:41:19;;;;;;;11.37;10.10;;;;;;;7.69;58.09;98969.06;7048367;28;20199;-66
2021/01/14 09:44:40;;;;;;;12.30;10.73;;;;;;;7.79;57.78;98967.78;7049541;28;20261;-66
2021/01/14 09:48:03;;;;;;;12.23;10.00;;;;;;;7.84;57.73;98975.28;7049545;28;20211;-65
2021/01/14 09:51:26;;;;;;;15.63;10.77;;;;;;;8.04;57.81;98995.22;7025450;28;20211;-65
2021/01/14 09:54:48;;;;;;;10.70;9.60;;;;;;;7.39;58.67;99000.38;7018828;28;20242;-64
2021/01/14 09:58:12;;;;;;;12.40;10.83;;;;;;;7.87;58.07;98999.91;7038742;28;20214;-65
2021/01/14 10:01:36;;;;;;;13.13;10.60;;;;;;;7.63;58.33;98967.97;7022820;28;20297;-65
2021/01/14 10:04:59;;;;;;;15.90;11.87;;;;;;;7.58;57.97;98958.78;7020785;28;20260;-66
2021/01/14 10:08:21;;;;;;;11.97;10.13;;;;;;;7.89;57.65;98978.28;7003140;28;20228;-65
2021/01/14 10:11:43;;;;;;;12.23;10.93;;;;;;;8.06;58.10;98985.09;7009492;28;20199;-66
2021/01/14 10:15:12;;;;;;;15.33;11.17;;;;;;;7.72;57.68;99000.91;7030402;28;20224;-66
2021/01/14 10:18:34;;;;;;;14.80;10.63;;;;;;;7.68;58.51;98999.59;7030581;28;20581;-67
2021/01/14 10:22:05;;;;;;;13.70;10.60;;;;;;;7.47;58.29;98962.75;7030203;28;20734;-65
2021/01/14 10:25:27;;;;;;;15.67;11.67;;;;;;;7.88;57.88;98988.16;7007427;28;20637;-66
2021/01/14 10:28:49;;;;;;;12.60;9.87;;;;;;;7.79;57.37;98993.81;6988769;28;20289;-67
2021/01/14 10:32:15;;;;;;;11.77;10.47;;;;;;;7.64;58.04;98990.25;7029095;28;20212;-68
2021/01/14 10:35:37;;;;;;;13.17;10.73;;;;;;;7.74;58.33;98994.34;7029930;28;20215;-68
2021/01/14 10:38:59;;;;;;;16.90;10.40;;;;;;;7.58;58.12;99001.69;7020325;28;20206;-67
2021/01/14 10:42:32;;;;;;;14.27;9.97;;;;;;;7.90;57.06;99014.81;7002040;28;20569;-67
2021/01/14 10:45:54;;;;;;;13.33;11.17;;;;;;;7.33;58.04;99030.59;7001677;28;20204;-66
2021/01/14 10:49:15;;;;;;;11.13;9.37;;;;;;;7.55;58.17;99015.50;7002908;28;20552;-65
2021/01/14 10:52:53;;;;;;;14.53;11.37;;;;;;;7.77;57.25;99028.03;6982362;28;20220;-67
2021/01/14 10:56:17;;;;;;;15.23;10.30;;;;;;;8.17;55.91;99025.78;7000559;28;20231;-69
2021/01/14 10:59:38;;;;;;;17.60;9.90;;;;;;;7.83;54.73;98989.75;7001817;28;20319;-67
2021/01/14 11:03:01;;;;;;;18.13;11.07;;;;;;;8.02;54.54;99010.69;7001241;28;20204;-67
2021/01/14 11:06:29;;;;;;;19.97;12.13;;;;;;;7.79;54.74;99012.59;7007710;28;20211;-67
2021/01/14 11:09:51;;;;;;;11.47;8.80;;;;;;;7.97;54.19;98999.66;7022611;28;20222;-67
2021/01/14 11:13:14;;;;;;;13.03;8.70;;;;;;;7.69;54.79;98988.69;7017417;28;20215;-68
2021/01/14 11:16:35;;;;;;;14.70;8.67;;;;;;;7.84;54.82;98994.09;7014041;28;20231;-69
2021/01/14 11:19:57;;;;;;;9.67;8.07;;;;;;;7.02;54.62;98948.56;7001233;28;20231;-67
2021/01/14 11:23:19;;;;;;;14.70;9.50;;;;;;;7.50;55.36;98981.16;7001777;28;20234;-66
2021/01/14 11:26:40;;;;;;;9.17;7.50;;;;;;;7.52;53.14;98948.78;7005926;28;20223;-65
2021/01/14 11:30:03;;;;;;;11.87;8.17;;;;;;;7.77;53.90;98979.75;7025066;28;20695;-66
2021/01/14 11:33:24;;;;;;;21.37;8.50;;;;;;;8.08;53.85;98996.50;7023287;28;20745;-66
2021/01/14 11:36:45;;;;;;;10.97;7.60;;;;;;;8.08;53.82;99020.69;7018106;28;20320;-66
2021/01/14 11:40:08;;;;;;;10.50;7.70;;;;;;;8.11;53.48;98982.69;7024619;28;20211;-69
2021/01/14 11:43:32;;;;;;;9.67;7.37;;;;;;;7.93;53.20;99004.56;7025019;28;20560;-68
2021/01/14 11:46:57;;;;;;;10.10;7.67;;;;;;;7.76;53.99;99008.41;7026944;28;20211;-66
2021/01/14 11:50:18;;;;;;;12.87;7.63;;;;;;;7.70;53.68;98978.78;7026648;28;20261;-67
2021/01/14 11:53:40;;;;;;;12.97;7.07;;;;;;;7.37;52.29;98947.94;7023068;28;20234;-66
2021/01/14 11:57:04;;;;;;;11.90;6.80;;;;;;;7.82;52.18;98988.03;7020917;28;20213;-66
2021/01/14 12:00:25;;;;;;;8.70;6.50;;;;;;;7.57;53.22;98976.75;7017204;28;20213;-67
2021/01/14 12:03:47;;;;;;;11.87;6.83;;;;;;;7.91;52.91;99000.38;7021513;28;20655;-66
2021/01/14 12:07:10;;;;;;;9.90;7.63;;;;;;;7.65;53.28;98991.91;7018756;28;20202;-67
2021/01/14 12:10:31;;;;;;;10.03;8.50;;;;;;;7.77;53.28;98990.47;7026014;28;20228;-66
2021/01/14 12:13:53;;;;;;;12.93;8.97;;;;;;;7.75;53.89;98981.75;7019455;28;20295;-66
2021/01/14 12:17:14;;;;;;;10.97;8.80;;;;;;;7.84;52.93;98989.53;7000574;28;20227;-67
2021/01/14 12:20:37;;;;;;;8.80;7.90;;;;;;;7.56;53.31;98993.84;7025866;28;20233;-67
2021/01/14 12:23:59;;;;;;;12.17;9.37;;;;;;;8.06;53.29;98994.00;7026349;28;20227;-67
2021/01/14 12:27:20;;;;;;;12.93;7.80;;;;;;;7.54;52.91;98955.63;6999407;28;20200;-66
2021/01/14 12:30:41;;;;;;;11.83;8.30;;;;;;;7.68;53.31;98970.94;6997192;28;20216;-66
2021/01/14 12:34:03;;;;;;;8.40;7.50;;;;;;;8.05;53.12;98962.81;6998021;28;20213;-67
2021/01/14 12:37:27;;;;;;;12.67;8.63;;;;;;;7.78;53.31;98965.28;7011503;28;20207;-66
2021/01/14 12:40:52;;;;;;;12.37;7.43;;;;;;;8.02;53.00;98954.28;7025440;28;20725;-67
2021/01/14 12:44:13;;;;;;;14.73;7.83;;;;;;;8.00;52.32;98967.03;7004117;28;20218;-67
2021/01/14 12:47:34;;;;;;;10.27;7.80;;;;;;;8.34;51.71;98970.88;7024342;28;20222;-67
2021/01/14 12:50:55;;;;;;;10.73;8.10;;;;;;;7.93;52.86;98958.06;7024490;28;20559;-67
2021/01/14 12:54:17;;;;;;;10.83;7.87;;;;;;;7.74;52.58;98915.69;6989152;28;20247;-64
2021/01/14 12:57:39;;;;;;;13.03;7.83;;;;;;;8.25;52.44;98974.66;7006762;28;20730;-66
2021/01/14 13:01:01;;;;;;;11.67;7.93;;;;;;;8.09;51.76;98972.16;6997635;28;20289;-67
2021/01/14 13:04:23;;;;;;;14.00;8.33;;;;;;;8.12;52.56;98989.72;6998376;28;20566;-68
2021/01/14 13:07:45;;;;;;;8.63;7.73;;;;;;;7.59;52.47;98936.28;6998364;28;20203;-67
2021/01/14 13:11:13;;;;;;;16.27;8.07;;;;;;;8.21;51.87;98965.34;6997945;28;20205;-67
2021/01/14 13:14:35;;;;;;;9.17;7.47;;;;;;;7.90;52.07;98980.75;7007574;28;20277;-67
2021/01/14 13:17:56;;;;;;;8.07;7.30;;;;;;;8.11;51.81;98961.22;7010968;28;20631;-67
2021/01/14 13:21:18;;;;;;;12.87;10.37;;;;;;;8.18;51.55;98962.97;7004962;28;20222;-67
2021/01/14 13:24:39;;;;;;;12.60;10.20;;;;;;;8.38;51.86;98957.91;7009016;28;20274;-67
2021/01/14 13:28:02;;;;;;;18.00;14.37;;;;;;;8.74;49.49;98948.00;7003485;28;20290;-67
2021/01/14 13:31:23;;;;;;;11.70;8.70;;;;;;;8.58;50.17;98946.38;6988527;28;20652;-67
2021/01/14 13:34:44;;;;;;;11.83;7.90;;;;;;;8.61;49.77;98954.03;7009114;28;20239;-67
2021/01/14 13:38:06;;;;;;;14.53;7.87;;;;;;;8.54;50.25;98920.91;7015408;28;20205;-68
2021/01/14 13:41:27;;;;;;;10.20;8.43;;;;;;;8.54;50.12;98947.75;7011382;28;20684;-67
2021/01/14 13:44:50;;;;;;;8.70;7.73;;;;;;;8.80;50.68;98936.50;7029272;28;20704;-68
2021/01/14 13:48:11;;;;;;;11.60;8.97;;;;;;;8.93;49.95;98948.22;7016569;28;20290;-67
2021/01/14 13:51:34;;;;;;;8.53;6.93;;;;;;;8.99;49.65;98953.66;7023251;28;20230;-67
2021/01/14 13:54:55;;;;;;;8.80;7.17;;;;;;;9.08;48.66;98951.66;7029219;28;20223;-68
2021/01/14 13:58:19;;;;;;;9.23;6.77;;;;;;;8.93;49.35;98950.06;7030299;28;20219;-65
2021/01/14 14:01:43;;;;;;;8.83;6.50;;;;;;;8.93;48.64;98958.97;7026884;28;20580;-67
2021/01/14 14:05:06;;;;;;;9.83;6.60;;;;;;;8.75;49.30;98955.88;7023536;28;20241;-67
2021/01/14 14:08:27;;;;;;;7.53;6.30;;;;;;;8.49;50.49;98960.13;7019890;28;20230;-67
2021/01/14 14:11:48;;;;;;;6.30;5.47;;;;;;;8.37;51.02;98951.69;7008076;28;20225;-67
2021/01/14 14:15:10;;;;;;;7.80;5.87;;;;;;;8.12;51.61;98957.50;7001871;28;20233;-66
2021/01/14 14:18:32;;;;;;;6.80;5.97;;;;;;;8.09;51.95;98963.28;7017093;28;20209;-65
2021/01/14 14:21:54;;;;;;;6.97;5.47;;;;;;;8.29;51.38;98959.88;7020899;28;20676;-65
2021/01/14 14:25:15;;;;;;;7.63;5.80;;;;;;;8.02;51.86;98951.59;7000038;28;20205;-67
2021/01/14 14:28:37;;;;;;;10.37;5.80;;;;;;;8.01;51.91;98956.13;7005357;28;20619;-66
2021/01/14 14:31:58;;;;;;;12.83;5.73;;;;;;;7.76;52.30;98961.94;7027150;28;20205;-66
2021/01/14 14:35:20;;;;;;;6.50;5.80;;;;;;;7.90;52.23;98969.19;6999775;28;20244;-66
2021/01/14 14:38:42;;;;;;;6.20;5.60;;;;;;;7.90;52.34;98964.63;7000397;28;20210;-66
2021/01/14 14:42:03;;;;;;;7.20;5.73;;;;;;;7.92;52.35;98965.31;7007772;28;20234;-66
2021/01/14 14:45:24;;;;;;;7.97;6.07;;;;;;;7.83;52.85;98973.63;7000403;28;20253;-66
2021/01/14 14:48:46;;;;;;;7.37;6.43;;;;;;;8.10;51.69;98979.19;7007603;28;20231;-67
2021/01/14 14:52:08;;;;;;;9.03;6.30;;;;;;;7.71;53.04;98977.78;7019583;28;20571;-65
2021/01/14 14:55:30;;;;;;;9.37;6.40;;;;;;;7.55;53.67;98972.56;7000094;28;20579;-66
2021/01/14 14:58:51;;;;;;;7.87;6.67;;;;;;;7.48;53.65;98955.53;7000185;28;20845;-66
2021/01/14 15:02:12;;;;;;;10.70;6.73;;;;;;;7.54;53.60;98969.03;7000529;28;20202;-66
2021/01/14 15:05:34;;;;;;;9.37;6.73;;;;;;;7.51;53.45;98974.78;7000053;28;20204;-66
2021/01/14 15:08:56;;;;;;;11.17;7.47;;;;;;;7.48;53.51;98966.28;7000324;28;20203;-67
2021/01/14 15:12:17;;;;;;;9.03;7.30;;;;;;;7.51;54.08;98972.09;7017684;28;20543;-66
2021/01/14 15:15:39;;;;;;;7.33;5.97;;;;;;;7.50;53.41;98964.22;7027917;28;20228;-66
2021/01/14 15:19:00;;;;;;;7.30;6.13;;;;;;;7.38;53.69;98961.13;7026694;28;20201;-65
2021/01/14 15:22:21;;;;;;;7.10;5.80;;;;;;;7.15;54.52;98973.75;7027102;28;20214;-66
2021/01/14 15:25:44;;;;;;;7.63;5.83;;;;;;;7.32;53.56;98975.25;7027801;28;20211;-66
2021/01/14 15:29:05;;;;;;;7.83;6.00;;;;;;;7.33;53.43;98978.78;7025681;28;20255;-66
2021/01/14 15:32:26;;;;;;;8.07;6.13;;;;;;;7.29;53.45;98964.91;7027337;28;20211;-66
2021/01/14 15:35:51;;;;;;;6.73;5.73;;;;;;;7.57;52.82;98962.47;7001318;28;20224;-66
2021/01/14 15:39:13;;;;;;;7.33;6.03;;;;;;;7.42;53.52;98959.75;6999476;28;20206;-65
2021/01/14 15:42:35;;;;;;;7.53;5.13;;;;;;;7.29;53.05;98966.75;7010876;28;20202;-66
2021/01/14 15:45:56;;;;;;;6.07;5.40;;;;;;;7.60;52.58;98962.13;7009987;28;20196;-65
2021/01/14 15:49:17;;;;;;;5.73;5.13;;;;;;;7.23;53.84;98964.78;6998848;28;20272;-67
2021/01/14 15:52:39;;;;;;;7.10;6.10;;;;;;;7.36;53.33;98967.72;6999287;28;20215;-65
2021/01/14 15:56:00;;;;;;;9.60;6.90;;;;;;;6.90;53.47;98974.09;6963600;28;20238;-66
2021/01/14 15:59:33;;;;;;;9.83;8.20;;;;;;;7.06;53.32;98971.28;6999419;28;20264;-66
2021/01/14 16:02:54;;;;;;;10.80;9.67;;;;;;;6.37;55.22;98974.06;6998740;28;20207;-66
2021/01/14 16:06:15;;;;;;;9.20;8.30;;;;;;;6.76;54.44;98967.66;6998541;28;20203;-66
2021/01/14 16:09:38;;;;;;;14.07;10.40;;;;;;;7.03;53.72;98948.38;6998794;28;20240;-66
2021/01/14 16:12:59;;;;;;;8.07;7.13;;;;;;;6.77;54.35;98957.78;6998525;28;20273;-66
2021/01/14 16:16:21;;;;;;;6.17;5.57;;;;;;;6.95;53.42;98977.91;6998555;28;20232;-66
2021/01/14 16:19:43;;;;;;;9.30;6.93;;;;;;;7.07;53.30;98972.97;6997654;28;20222;-66
2021/01/14 16:23:04;;;;;;;14.80;9.63;;;;;;;7.03;53.46;98972.50;6997485;28;20204;-66
2021/01/14 16:26:25;;;;;;;5.70;5.17;;;;;;;6.70;54.27;98972.88;6997856;28;20203;-66
2021/01/14 16:29:47;;;;;;;10.47;7.57;;;;;;;6.44;54.70;98983.06;6997546;28;20208;-66
2021/01/14 16:33:10;;;;;;;10.07;7.77;;;;;;;6.73;54.00;98940.38;6997248;28;20212;-66
2021/01/14 16:36:31;;;;;;;6.20;5.27;;;;;;;6.55;53.52;98969.28;7000354;28;20236;-66
2021/01/14 16:39:53;;;;;;;9.40;6.67;;;;;;;6.51;54.79;98966.13;7013943;28;20202;-67
2021/01/14 16:43:14;;;;;;;7.20;6.27;;;;;;;6.99;54.08;98951.56;7001809;28;20649;-67
2021/01/14 16:46:36;;;;;;;8.03;6.07;;;;;;;7.20;53.24;98933.81;6995767;28;20206;-66
2021/01/14 16:50:00;;;;;;;6.93;5.93;;;;;;;7.12;52.75;98949.13;6997785;28;20218;-66
2021/01/14 16:53:21;;;;;;;8.63;6.40;;;;;;;7.34;52.11;98945.59;6965327;28;20195;-65
2021/01/14 16:56:45;;;;;;;9.63;7.80;;;;;;;7.20;52.95;98957.13;7025287;28;20730;-66
2021/01/14 17:00:07;;;;;;;7.57;6.73;;;;;;;7.21;52.65;98946.22;7024625;28;20203;-66
2021/01/14 17:03:29;;;;;;;9.93;6.57;;;;;;;7.17;53.30;98944.91;7010930;28;20207;-66
2021/01/14 17:06:52;;;;;;;6.50;5.50;;;;;;;7.15;52.95;98944.25;7010366;28;20549;-66
2021/01/14 17:10:13;;;;;;;6.40;5.80;;;;;;;7.20;52.14;98931.13;7016563;28;20560;-66
2021/01/14 17:13:35;;;;;;;7.17;5.77;;;;;;;7.12;52.57;98939.25;7009694;28;20592;-65
2021/01/14 17:17:00;;;;;;;6.90;5.37;;;;;;;6.84;53.06;98934.63;7028156;28;20579;-65
2021/01/14 17:20:21;;;;;;;8.50;6.10;;;;;;;6.98;52.48;98928.47;7028132;28;20211;-66
2021/01/14 17:23:44;;;;;;;8.47;6.77;;;;;;;6.71;53.23;98910.25;7009723;28;20322;-66
2021/01/14 17:27:06;;;;;;;8.43;5.87;;;;;;;6.50;53.45;98910.06;7029518;28;20218;-65
2021/01/14 17:30:28;;;;;;;6.17;5.37;;;;;;;6.65;53.65;98921.66;7029863;28;20208;-65
2021/01/14 17:33:49;;;;;;;8.17;6.33;;;;;;;6.74;53.18;98899.19;7011959;28;20566;-66
2021/01/14 17:37:10;;;;;;;8.53;7.07;;;;;;;6.73;53.19;98898.34;7030427;28;20723;-66
2021/01/14 17:40:36;;;;;;;10.13;8.27;;;;;;;6.19;54.98;98904.69;7026527;28;20223;-66
2021/01/14 17:43:57;;;;;;;8.67;7.77;;;;;;;5.26;58.24;98909.97;7015458;28;20206;-66
2021/01/14 17:47:19;;;;;;;10.50;8.10;;;;;;;5.17;58.97;98902.16;7014439;28;20225;-66
2021/01/14 17:50:40;;;;;;;10.83;8.37;;;;;;;4.88;59.80;98886.66;7014536;28;20202;-64
2021/01/14 17:54:01;;;;;;;12.10;8.53;;;;;;;5.11;59.65;98884.97;6978250;28;20234;-66
2021/01/14 17:57:23;;;;;;;11.07;8.13;;;;;;;5.11;59.68;98895.66;7004491;28;20665;-66
2021/01/14 18:00:44;;;;;;;12.70;9.37;;;;;;;5.33;59.22;98902.13;7001352;28;20222;-65
2021/01/14 18:04:06;;;;;;;11.60;9.03;;;;;;;5.91;57.72;98889.28;7003308;28;20251;-65
2021/01/14 18:07:27;;;;;;;15.67;9.00;;;;;;;5.69;58.42;98888.19;7001830;28;20202;-66
2021/01/14 18:10:56;;;;;;;12.53;9.57;;;;;;;6.25;57.17;98884.44;7001713;28;20249;-66
2021/01/14 18:14:18;;;;;;;10.20;8.43;;;;;;;6.50;55.59;98881.44;7002219;28;20203;-66
2021/01/14 18:17:41;;;;;;;9.63;8.23;;;;;;;6.38;56.08;98877.47;7000663;28;20227;-65
2021/01/14 18:21:02;;;;;;;13.20;9.07;;;;;;;6.41;55.60;98865.59;7002006;28;20261;-66
2021/01/14 18:24:24;;;;;;;12.73;9.13;;;;;;;6.59;55.38;98869.66;7002093;28;20594;-65
2021/01/14 18:27:48;;;;;;;11.40;9.43;;;;;;;6.73;54.97;98865.38;6999305;28;20227;-65
2021/01/14 18:31:11;;;;;;;12.53;8.00;;;;;;;6.49;54.85;98834.22;7000356;28;20215;-65
2021/01/14 18:34:32;;;;;;;10.73;7.80;;;;;;;6.49;54.68;98866.38;7001237;28;20224;-65
2021/01/14 18:37:53;;;;;;;8.60;7.63;;;;;;;6.46;54.67;98869.41;7001264;28;20634;-65
2021/01/14 18:41:18;;;;;;;11.50;8.23;;;;;;;6.07;55.57;98865.13;7001129;28;20211;-65
2021/01/14 18:44:40;;;;;;;11.20;7.93;;;;;;;5.82;56.45;98879.63;7005315;28;20202;-65
2021/01/14 18:48:03;;;;;;;14.57;8.77;;;;;;;6.06;55.98;98869.66;7019604;28;20280;-65
2021/01/14 18:51:24;;;;;;;11.13;8.30;;;;;;;6.51;54.96;98871.53;7014682;28;20214;-65
2021/01/14 18:54:45;;;;;;;9.93;7.43;;;;;;;6.34;54.27;98873.50;7006690;28;20208;-65
2021/01/14 18:58:07;;;;;;;10.33;7.07;;;;;;;6.46;54.10;98890.84;7001146;28;20211;-65
2021/01/14 19:01:28;;;;;;;11.47;7.20;;;;;;;6.83;52.81;98868.66;7016905;28;20644;-64
2021/01/14 19:04:50;;;;;;;11.97;8.20;;;;;;;6.28;53.69;98863.50;7028311;28;20203;-65
2021/01/14 19:08:11;;;;;;;12.13;8.43;;;;;;;6.21;54.95;98893.81;7023208;28;20211;-65
2021/01/14 19:11:33;;;;;;;13.40;7.70;;;;;;;6.40;53.89;98888.03;7021066;28;20204;-65
2021/01/14 19:14:54;;;;;;;10.80;7.60;;;;;;;6.77;52.70;98880.91;7026187;28;20205;-66
2021/01/14 19:18:15;;;;;;;10.63;8.97;;;;;;;6.36;53.86;98879.50;7028294;28;20210;-66
2021/01/14 19:21:38;;;;;;;11.30;8.10;;;;;;;6.43;53.12;98875.09;7031445;28;20211;-66
2021/01/14 19:24:59;;;;;;;13.53;7.97;;;;;;;6.33;53.61;98882.56;7028967;28;20639;-65
2021/01/14 19:28:20;;;;;;;10.67;7.27;;;;;;;5.97;54.04;98885.91;7013076;28;20226;-67
2021/01/14 19:31:42;;;;;;;12.17;7.37;;;;;;;6.03;54.24;98867.34;6999946;28;20243;-65
2021/01/14 19:35:04;;;;;;;10.80;7.20;;;;;;;5.41;55.61;98856.66;7027240;28;20271;-65
2021/01/14 19:38:26;;;;;;;12.60;8.10;;;;;;;5.22;56.06;98827.66;7027261;28;20210;-65
2021/01/14 19:41:47;;;;;;;11.60;8.13;;;;;;;4.53;58.27;98876.28;7027289;28;20644;-65
2021/01/14 19:45:10;;;;;;;12.60;8.80;;;;;;;5.21;55.80;98816.13;7027424;28;20202;-65
2021/01/14 19:48:31;;;;;;;8.30;7.50;;;;;;;5.36;56.08;98857.19;7026910;28;20215;-66
2021/01/14 19:51:56;;;;;;;14.53;9.17;;;;;;;5.26;56.21;98874.41;7001456;28;20233;-64
2021/01/14 19:55:21;;;;;;;13.23;8.50;;;;;;;5.20;56.95;98878.59;7008197;28;20274;-63
2021/01/14 19:58:43;;;;;;;9.40;7.73;;;;;;;5.18;57.20;98872.59;7026934;28;20206;-65
2021/01/14 20:02:05;;;;;;;11.20;8.87;;;;;;;4.75;57.89;98885.47;7008032;28;20212;-64
2021/01/14 20:05:26;;;;;;;11.70;9.33;;;;;;;5.00;57.83;98868.41;7008585;28;20256;-65
2021/01/14 20:08:48;;;;;;;9.97;7.83;;;;;;;5.49;55.73;98854.78;7026550;28;20213;-64
2021/01/14 20:12:11;;;;;;;10.80;7.77;;;;;;;5.17;56.58;98851.38;6997624;28;20210;-65
2021/01/14 20:15:34;;;;;;;14.73;9.23;;;;;;;5.23;56.74;98850.69;6998776;28;20359;-65
2021/01/14 20:18:55;;;;;;;13.00;8.90;;;;;;;5.19;56.87;98847.53;6999391;28;20248;-65
2021/01/14 20:22:17;;;;;;;12.97;7.73;;;;;;;5.25;56.25;98849.50;7004100;28;20206;-64
2021/01/14 20:25:38;;;;;;;15.53;8.90;;;;;;;4.87;56.63;98852.06;7017090;28;20194;-65
2021/01/14 20:29:00;;;;;;;13.97;8.30;;;;;;;4.98;57.19;98854.41;7025106;28;20223;-65
2021/01/14 20:32:23;;;;;;;13.50;8.23;;;;;;;4.38;58.75;98858.41;7024133;28;20209;-65
2021/01/14 20:35:44;;;;;;;11.17;8.50;;;;;;;5.43;55.93;98852.00;7006004;28;20225;-65
2021/01/14 20:39:08;;;;;;;11.37;8.20;;;;;;;5.17;56.16;98854.88;7025035;28;20205;-65
2021/01/14 20:42:32;;;;;;;11.40;8.40;;;;;;;4.80;56.56;98853.75;7025961;28;20208;-64
2021/01/14 20:45:55;;;;;;;15.93;8.10;;;;;;;4.71;57.61;98862.78;6979015;28;20271;-65
2021/01/14 20:49:16;;;;;;;14.63;8.40;;;;;;;4.96;56.95;98861.78;7004561;28;20198;-64
2021/01/14 20:52:38;;;;;;;9.63;7.70;;;;;;;5.09;56.18;98872.78;7018281;28;20218;-65
2021/01/14 20:55:59;;;;;;;13.30;8.17;;;;;;;4.93;55.76;98862.94;6998287;28;20298;-64
2021/01/14 20:59:20;;;;;;;10.57;7.90;;;;;;;4.96;55.80;98864.44;6998198;28;20205;-64
2021/01/14 21:02:42;;;;;;;11.37;7.67;;;;;;;4.74;55.37;98804.53;6997931;28;20218;-65
2021/01/14 21:06:04;;;;;;;11.27;9.17;;;;;;;5.28;55.04;98843.00;7002057;28;20553;-65
2021/01/14 21:09:25;;;;;;;14.70;9.57;;;;;;;4.91;55.39;98861.44;7001364;28;20203;-65
2021/01/14 21:12:46;;;;;;;9.70;8.17;;;;;;;5.01;55.18;98854.09;6972132;28;20528;-66
2021/01/14 21:16:09;;;;;;;12.63;9.43;;;;;;;4.64;56.64;98856.44;6998257;28;20225;-65
2021/01/14 21:19:31;;;;;;;14.57;9.23;;;;;;;5.02;55.33;98843.22;6998210;28;20202;-64
2021/01/14 21:22:52;;;;;;;15.53;9.07;;;;;;;5.37;53.97;98847.34;7002923;28;20224;-64
2021/01/14 21:26:14;;;;;;;11.97;9.33;;;;;;;4.99;54.54;98850.72;7005701;28;20266;-64
2021/01/14 21:29:35;;;;;;;13.97;9.33;;;;;;;5.28;54.16;98845.66;7009529;28;20218;-66
2021/01/14 21:32:58;;;;;;;13.07;8.40;;;;;;;4.84;54.70;98845.22;7026172;28;20211;-64
2021/01/14 21:36:27;;;;;;;12.37;9.70;;;;;;;5.24;54.07;98845.19;6998710;28;20258;-65
2021/01/14 21:39:49;;;;;;;14.13;9.23;;;;;;;4.93;54.85;98833.56;6997876;28;20213;-65
2021/01/14 21:43:10;;;;;;;13.33;9.00;;;;;;;4.35;56.22;98845.38;6997595;28;20213;-65
2021/01/14 21:46:32;;;;;;;11.07;8.17;;;;;;;4.19;57.11;98856.06;6997884;28;20667;-64
2021/01/14 21:49:53;;;;;;;8.50;7.40;;;;;;;4.36;57.40;98831.88;7002814;28;20206;-65
2021/01/14 21:53:16;;;;;;;9.37;7.67;;;;;;;4.91;54.73;98829.38;7002297;28;20546;-66
2021/01/14 21:56:38;;;;;;;13.33;8.70;;;;;;;4.08;56.94;98843.84;6997513;28;20378;-65
2021/01/14 21:59:59;;;;;;;17.37;9.43;;;;;;;4.27;56.08;98840.06;6996429;28;20205;-65
